Time;durP1;ratioP1;P1;durP2;ratioP2;P2;SDS_P1;SDS_P2;PMS_P1;PMS_P2;Temp;Humidity;BMP_temperature;BMP_pressure;BME280_temperature;BME280_humidity;BME280_pressure;Samples;Min_cycle;Max_cycle;Signal;HPM_P1;HPM_P2
2021/12/12 00:01:27;;;;;;;15.65;10.07;;;;;;;3.01;100.00;101113.91;5067420;28;20042;-57
2021/12/12 00:04:04;;;;;;;28.88;12.20;;;;;;;3.04;100.00;101111.28;5066130;28;20036;-57
2021/12/12 00:06:33;;;;;;;19.08;9.93;;;;;;;3.08;100.00;101110.38;5068584;28;20143;-57
2021/12/12 00:09:10;;;;;;;26.02;10.13;;;;;;;3.11;100.00;101109.47;5066820;28;21003;-57
2021/12/12 00:11:37;;;;;;;20.83;11.52;;;;;;;3.14;100.00;101108.63;5066745;28;20031;-57
2021/12/12 00:14:26;;;;;;;23.55;10.82;;;;;;;3.18;100.00;101112.91;5065628;28;20027;-57
2021/12/12 00:16:53;;;;;;;18.77;10.95;;;;;;;3.21;100.00;101102.50;5066788;28;20035;-57
2021/12/12 00:19:21;;;;;;;26.10;11.25;;;;;;;3.21;100.00;101099.91;5066995;28;20027;-57
2021/12/12 00:21:51;;;;;;;18.63;10.93;;;;;;;3.24;100.00;101103.34;5066847;28;20039;-57
2021/12/12 00:24:17;;;;;;;27.15;11.93;;;;;;;3.04;100.00;101072.34;5066362;28;20050;-57
2021/12/12 00:26:46;;;;;;;17.58;10.32;;;;;;;3.29;100.00;101108.47;5066237;28;20058;-57
2021/12/12 00:29:13;;;;;;;23.02;11.23;;;;;;;3.29;100.00;101101.53;5065316;28;20102;-57
2021/12/12 00:31:39;;;;;;;25.10;12.00;;;;;;;3.15;100.00;101071.38;5066489;28;20037;-57
2021/12/12 00:34:05;;;;;;;25.60;10.85;;;;;;;3.33;100.00;101099.78;5065417;28;20016;-57
2021/12/12 00:36:32;;;;;;;17.20;11.13;;;;;;;3.38;100.00;101098.03;5065973;28;20521;-57
2021/12/12 00:39:01;;;;;;;23.20;12.07;;;;;;;3.20;100.00;101057.50;5067866;28;20021;-57
2021/12/12 00:41:35;;;;;;;26.42;11.68;;;;;;;3.40;100.00;101091.06;5065718;28;20027;-57
2021/12/12 00:44:01;;;;;;;19.58;10.45;;;;;;;3.43;100.00;101091.03;5067266;28;20120;-57
2021/12/12 00:46:27;;;;;;;18.23;10.00;;;;;;;3.43;100.00;101080.63;5067024;28;20089;-57
2021/12/12 00:48:54;;;;;;;16.77;10.55;;;;;;;3.44;100.00;101088.44;5064722;28;20023;-57
2021/12/12 00:51:23;;;;;;;18.70;11.35;;;;;;;3.46;100.00;101085.78;5065133;28;20104;-56
2021/12/12 00:53:48;;;;;;;22.35;11.05;;;;;;;3.48;100.00;101084.06;5066577;28;20116;-57
2021/12/12 00:56:14;;;;;;;22.45;10.70;;;;;;;3.49;100.00;101084.03;5067435;28;20935;-56
2021/12/12 00:58:39;;;;;;;21.45;10.65;;;;;;;3.09;100.00;101007.41;5066151;28;20020;-57
2021/12/12 01:01:12;;;;;;;19.10;10.13;;;;;;;3.55;100.00;101080.50;5046614;28;20092;-57
2021/12/12 01:03:48;;;;;;;24.83;10.75;;;;;;;3.59;100.00;101077.84;5050953;28;20036;-56
2021/12/12 01:06:14;;;;;;;19.17;10.48;;;;;;;3.29;100.00;101015.00;5066007;28;20139;-56
2021/12/12 01:08:41;;;;;;;19.55;9.73;;;;;;;3.64;100.00;101063.97;5064810;28;20046;-56
2021/12/12 01:11:11;;;;;;;21.77;9.95;;;;;;;3.67;100.00;101059.59;5066738;28;20861;-56
2021/12/12 01:13:37;;;;;;;20.15;10.60;;;;;;;3.71;100.00;101063.03;5066062;28;20078;-56
2021/12/12 01:16:09;;;;;;;22.67;9.75;;;;;;;3.74;100.00;101063.84;5066145;28;20888;-56
2021/12/12 01:18:42;;;;;;;19.92;10.02;;;;;;;3.76;100.00;101056.88;5055335;28;20039;-56
2021/12/12 01:21:17;;;;;;;21.95;9.60;;;;;;;3.80;100.00;101066.38;5040180;28;20151;-56
2021/12/12 01:23:53;;;;;;;15.93;8.85;;;;;;;3.81;100.00;101065.50;5044510;28;20036;-56
2021/12/12 01:26:18;;;;;;;18.77;8.75;;;;;;;3.82;100.00;101067.19;5045715;28;20042;-56
2021/12/12 01:28:46;;;;;;;24.08;10.38;;;;;;;3.85;100.00;101054.16;5045877;28;20028;-56
2021/12/12 01:31:15;;;;;;;25.55;10.73;;;;;;;3.89;100.00;101055.84;5045554;28;20089;-56
2021/12/12 01:33:41;;;;;;;16.40;8.93;;;;;;;3.85;100.00;101046.34;5045903;28;20020;-56
2021/12/12 01:36:09;;;;;;;24.05;10.27;;;;;;;3.93;100.00;101056.66;5045111;28;20306;-56
2021/12/12 01:38:55;;;;;;;12.38;8.57;;;;;;;3.91;100.00;101054.09;5045614;28;20076;-56
2021/12/12 01:41:34;;;;;;;19.95;9.10;;;;;;;3.87;100.00;101060.22;5045398;28;20032;-56
2021/12/12 01:44:04;;;;;;;18.55;9.18;;;;;;;3.87;100.00;101057.63;5045833;28;20032;-56
2021/12/12 01:46:33;;;;;;;15.77;8.63;;;;;;;3.87;100.00;101067.16;5027845;28;20028;-56
2021/12/12 01:49:06;;;;;;;20.60;9.57;;;;;;;3.83;100.00;101055.94;5038629;28;20047;-57
2021/12/12 01:51:32;;;;;;;16.00;8.23;;;;;;;3.89;100.00;101066.25;5048837;28;20121;-57
2021/12/12 01:54:01;;;;;;;18.55;8.23;;;;;;;3.89;100.00;101060.19;5048534;28;20958;-57
2021/12/12 01:56:34;;;;;;;19.33;8.52;;;;;;;3.91;100.00;101056.72;5049422;28;20026;-57
2021/12/12 01:59:06;;;;;;;21.75;8.38;;;;;;;3.93;100.00;101062.72;5048183;28;20028;-57
2021/12/12 02:01:38;;;;;;;26.25;8.40;;;;;;;3.92;100.00;101054.97;5049609;28;20083;-56
2021/12/12 02:04:08;;;;;;;20.80;8.60;;;;;;;3.97;100.00;101060.97;5050948;28;20432;-56
2021/12/12 02:06:34;;;;;;;18.48;8.05;;;;;;;3.90;100.00;101044.56;5049646;28;20058;-56
2021/12/12 02:09:00;;;;;;;15.93;8.55;;;;;;;3.95;100.00;101049.72;5048777;28;20020;-56
2021/12/12 02:11:30;;;;;;;18.98;8.07;;;;;;;3.94;100.00;101046.28;5048103;28;20147;-56
2021/12/12 02:13:57;;;;;;;21.30;8.35;;;;;;;3.92;100.00;101045.41;5047225;28;20034;-57
2021/12/12 02:16:25;;;;;;;20.00;8.63;;;;;;;3.96;100.00;101046.22;5039431;28;20436;-57
2021/12/12 02:18:53;;;;;;;20.67;8.52;;;;;;;3.96;100.00;101041.91;5048835;28;20043;-57
2021/12/12 02:21:30;;;;;;;21.15;8.25;;;;;;;3.95;100.00;101045.41;5030713;28;20039;-57
2021/12/12 02:35:18;;;;;;;15.00;7.22;;;;;;;3.93;100.00;101030.69;5048312;28;20098;-57
2021/12/12 02:37:45;;;;;;;17.65;9.30;;;;;;;3.93;100.00;101039.34;5033168;28;20131;-57
2021/12/12 02:40:21;;;;;;;18.48;9.13;;;;;;;3.91;100.00;101037.66;5048049;28;20093;-57
2021/12/12 02:42:46;;;;;;;12.15;7.57;;;;;;;3.93;100.00;101041.94;5040670;28;20028;-57
2021/12/12 02:45:14;;;;;;;16.90;8.07;;;;;;;3.94;100.00;101048.00;5047769;28;20832;-58
2021/12/12 02:47:40;;;;;;;14.13;8.07;;;;;;;3.91;100.00;101033.31;5047996;28;20028;-57
2021/12/12 02:50:20;;;;;;;21.65;8.93;;;;;;;3.96;100.00;101041.03;5048915;28;20968;-57
2021/12/12 02:52:50;;;;;;;16.45;8.68;;;;;;;3.97;100.00;101028.03;5047812;28;20031;-57
2021/12/12 02:55:20;;;;;;;15.75;7.85;;;;;;;3.96;100.00;101034.09;5047276;28;20092;-57
2021/12/12 02:57:46;;;;;;;14.60;7.30;;;;;;;3.97;100.00;101037.56;5047837;28;20032;-58
2021/12/12 03:00:17;;;;;;;19.63;6.97;;;;;;;3.99;100.00;101041.84;5048311;28;20093;-58
2021/12/12 03:02:46;;;;;;;22.02;8.93;;;;;;;4.00;100.00;101040.97;5047069;28;20423;-57
2021/12/12 03:05:15;;;;;;;26.92;8.77;;;;;;;4.00;100.00;101038.38;5046955;28;20034;-58
2021/12/12 03:07:43;;;;;;;14.32;8.65;;;;;;;4.03;100.00;101043.53;5046528;28;20098;-57
2021/12/12 03:10:13;;;;;;;13.75;8.23;;;;;;;4.03;100.00;101040.94;5038498;28;20043;-57
2021/12/12 03:12:40;;;;;;;16.98;8.55;;;;;;;4.03;100.00;101038.34;5046791;28;20040;-57
2021/12/12 03:15:15;;;;;;;20.75;8.82;;;;;;;4.05;100.00;101031.41;5047711;28;20134;-57
2021/12/12 03:17:43;;;;;;;20.73;9.73;;;;;;;4.06;100.00;101038.28;5048978;28;20036;-57
2021/12/12 03:20:32;;;;;;;17.92;7.63;;;;;;;4.08;100.00;101035.69;5047808;28;20138;-58
2021/12/12 03:23:06;;;;;;;20.98;7.93;;;;;;;4.07;100.00;101028.75;5046165;28;20024;-57
2021/12/12 03:25:34;;;;;;;21.33;8.45;;;;;;;4.08;100.00;101027.88;5047729;28;20038;-56
2021/12/12 03:28:00;;;;;;;20.48;7.80;;;;;;;3.90;100.00;100989.13;5047705;28;20146;-56
2021/12/12 03:30:26;;;;;;;23.20;8.18;;;;;;;4.10;100.00;101024.38;5047365;28;20028;-56
2021/12/12 03:32:51;;;;;;;24.60;9.32;;;;;;;4.10;100.00;101020.91;5047370;28;20053;-56
2021/12/12 03:35:17;;;;;;;17.83;7.75;;;;;;;3.98;100.00;100995.97;5047263;28;20035;-57
2021/12/12 03:37:43;;;;;;;14.43;8.18;;;;;;;4.11;100.00;101023.50;5037765;28;20081;-57
2021/12/12 03:40:18;;;;;;;16.27;8.55;;;;;;;4.12;100.00;101022.59;5047353;28;20131;-57
2021/12/12 03:42:46;;;;;;;17.05;8.35;;;;;;;4.10;100.00;101013.13;5045468;28;20928;-57
2021/12/12 03:45:13;;;;;;;24.90;9.32;;;;;;;4.13;100.00;101024.34;5046045;28;20078;-58
2021/12/12 03:47:43;;;;;;;15.02;8.23;;;;;;;4.17;100.00;101030.34;5047560;28;20931;-57
2021/12/12 03:50:14;;;;;;;21.17;8.00;;;;;;;4.18;100.00;101021.69;5045673;28;20127;-57
2021/12/12 03:52:40;;;;;;;14.15;8.85;;;;;;;4.05;100.00;100989.78;5047072;28;20878;-57
2021/12/12 03:55:07;;;;;;;19.40;8.50;;;;;;;4.17;100.00;101004.34;5047870;28;20067;-57
2021/12/12 03:57:33;;;;;;;19.85;8.90;;;;;;;4.18;100.00;101002.59;5047871;28;20858;-57
2021/12/12 03:59:59;;;;;;;15.48;8.18;;;;;;;4.19;100.00;100996.53;5031995;28;20109;-57
2021/12/12 04:02:24;;;;;;;19.58;8.00;;;;;;;4.20;100.00;100998.22;5047628;28;20046;-57
2021/12/12 04:04:50;;;;;;;15.70;8.52;;;;;;;4.20;100.00;100993.03;5045315;28;20118;-57
2021/12/12 04:07:22;;;;;;;12.80;7.63;;;;;;;4.21;100.00;101007.75;5046899;28;20961;-57
2021/12/12 04:09:47;;;;;;;19.10;8.77;;;;;;;4.22;100.00;101002.56;5046622;28;20074;-57
2021/12/12 04:12:15;;;;;;;21.05;8.82;;;;;;;4.24;100.00;101002.50;5045779;28;20930;-57
2021/12/12 04:14:41;;;;;;;17.17;8.13;;;;;;;4.24;100.00;100999.91;5046522;28;20019;-57
2021/12/12 04:17:12;;;;;;;18.52;9.57;;;;;;;4.25;100.00;100996.44;5046272;28;20047;-57
2021/12/12 04:19:38;;;;;;;14.90;8.05;;;;;;;4.27;100.00;100997.25;5046129;28;20028;-57
2021/12/12 04:22:04;;;;;;;20.58;7.95;;;;;;;4.23;100.00;100990.38;5050309;28;20035;-57
2021/12/12 04:24:33;;;;;;;15.88;8.90;;;;;;;4.29;100.00;100996.34;5046978;28;20030;-57
2021/12/12 04:26:59;;;;;;;15.15;9.05;;;;;;;4.29;100.00;100988.53;5046612;28;20028;-57
2021/12/12 04:29:33;;;;;;;16.45;8.85;;;;;;;4.16;100.00;100973.19;5047219;28;20016;-57
2021/12/12 04:32:03;;;;;;;12.75;8.75;;;;;;;4.32;100.00;100998.06;5046965;28;20036;-57
2021/12/12 04:34:33;;;;;;;17.05;9.50;;;;;;;4.33;100.00;100995.44;5045177;28;20139;-57
2021/12/12 04:37:01;;;;;;;21.15;8.75;;;;;;;4.36;100.00;101004.94;5045928;28;20131;-57
2021/12/12 04:39:30;;;;;;;13.18;7.93;;;;;;;4.38;100.00;101006.63;5046164;28;20131;-57
2021/12/12 04:42:15;;;;;;;12.57;7.90;;;;;;;4.41;100.00;100997.91;5045900;28;20032;-57
2021/12/12 04:44:42;;;;;;;15.93;7.93;;;;;;;4.43;100.00;101007.41;5046375;28;20034;-57
2021/12/12 04:50:18;;;;;;;19.83;8.88;;;;;;;4.49;100.00;101006.47;5045446;28;20082;-57
2021/12/12 04:52:54;;;;;;;14.13;7.90;;;;;;;4.54;100.00;100999.44;5044544;28;20090;-56
2021/12/12 04:55:33;;;;;;;14.70;7.30;;;;;;;4.56;100.00;100998.53;5030073;28;20032;-56
2021/12/12 04:58:10;;;;;;;14.20;7.28;;;;;;;4.62;100.00;101013.22;5028657;28;20193;-57
2021/12/12 05:00:52;;;;;;;14.98;7.72;;;;;;;4.66;100.00;101008.81;5027826;28;20198;-57
2021/12/12 05:03:40;;;;;;;12.40;6.60;;;;;;;4.69;100.00;101009.63;5029013;28;20090;-57
2021/12/12 05:06:18;;;;;;;23.23;7.70;;;;;;;4.71;100.00;100996.56;5047463;28;20044;-57
2021/12/12 05:08:50;;;;;;;13.68;7.47;;;;;;;4.74;100.00;101007.78;5045879;28;20024;-57
2021/12/12 05:11:25;;;;;;;10.93;7.05;;;;;;;4.75;100.00;101006.03;5046208;28;20028;-57
2021/12/12 05:13:56;;;;;;;15.40;7.55;;;;;;;4.76;100.00;101000.81;5045989;28;20035;-57
2021/12/12 05:16:31;;;;;;;15.30;7.20;;;;;;;4.79;100.00;101010.31;5047018;28;20028;-57
2021/12/12 05:19:04;;;;;;;10.60;6.72;;;;;;;4.77;100.00;100997.31;5027518;28;20385;-57
2021/12/12 05:21:37;;;;;;;11.73;7.38;;;;;;;4.82;100.00;101013.72;5027820;28;20036;-57
2021/12/12 05:24:05;;;;;;;16.55;6.53;;;;;;;4.84;100.00;100998.94;5048439;28;20035;-57
2021/12/12 05:26:43;;;;;;;15.48;7.35;;;;;;;4.84;100.00;100998.94;5032728;28;20098;-57
2021/12/12 05:29:18;;;;;;;13.35;6.05;;;;;;;4.86;100.00;101007.59;5048459;28;20023;-57
2021/12/12 05:31:49;;;;;;;9.88;6.57;;;;;;;4.87;100.00;101006.69;5033168;28;20028;-57
2021/12/12 05:34:17;;;;;;;15.93;6.47;;;;;;;4.89;100.00;101006.69;5049758;28;20032;-57
2021/12/12 05:36:44;;;;;;;15.85;7.20;;;;;;;4.90;100.00;101004.03;5049494;28;20020;-57
2021/12/12 05:39:10;;;;;;;11.90;6.72;;;;;;;4.92;100.00;101011.84;5030562;28;20089;-56
2021/12/12 05:41:36;;;;;;;6.80;5.60;;;;;;;4.92;100.00;101007.47;5030074;28;20135;-57
2021/12/12 05:44:03;;;;;;;12.75;6.05;;;;;;;4.94;100.00;101010.03;5048863;28;20839;-57
2021/12/12 05:46:29;;;;;;;9.45;5.97;;;;;;;4.94;100.00;101010.91;5049787;28;20031;-57
2021/12/12 05:48:55;;;;;;;11.40;5.82;;;;;;;4.94;100.00;101005.69;5031001;28;20237;-57
2021/12/12 05:51:21;;;;;;;11.13;5.80;;;;;;;4.95;100.00;101007.44;5048644;28;20825;-57
2021/12/12 05:53:50;;;;;;;10.55;5.18;;;;;;;4.97;100.00;101005.66;5049586;28;20028;-57
2021/12/12 05:56:15;;;;;;;7.50;5.40;;;;;;;4.98;100.00;101002.16;5047495;28;20085;-57
2021/12/12 05:58:41;;;;;;;13.63;6.30;;;;;;;4.99;100.00;101003.88;5029629;28;20024;-57
2021/12/12 06:01:10;;;;;;;11.07;5.82;;;;;;;5.01;100.00;101016.88;5031232;28;20039;-57
2021/12/12 06:03:38;;;;;;;8.23;5.18;;;;;;;5.01;100.00;101017.72;5048772;28;20030;-57
2021/12/12 06:06:07;;;;;;;12.57;6.07;;;;;;;5.01;100.00;101022.94;5048892;28;20035;-57
2021/12/12 06:08:33;;;;;;;10.02;5.68;;;;;;;5.03;100.00;101029.00;5049393;28;20028;-57
2021/12/12 06:10:59;;;;;;;9.55;5.15;;;;;;;5.03;100.00;101026.41;5030728;28;20131;-57
2021/12/12 06:13:26;;;;;;;8.63;5.18;;;;;;;5.03;100.00;101029.00;5031223;28;20036;-57
2021/12/12 06:15:54;;;;;;;16.00;5.25;;;;;;;5.06;100.00;101035.88;5031211;28;20089;-57
2021/12/12 06:18:21;;;;;;;7.45;5.60;;;;;;;4.89;100.00;100999.72;5047149;28;20171;-57
2021/12/12 06:20:47;;;;;;;9.80;5.35;;;;;;;5.07;100.00;101035.84;5031319;28;20078;-57
2021/12/12 06:23:15;;;;;;;8.20;5.20;;;;;;;5.05;100.00;101035.03;5048996;28;20036;-57
2021/12/12 06:25:40;;;;;;;8.43;5.05;;;;;;;4.75;100.00;100990.44;5056574;28;20031;-57
2021/12/12 06:28:16;;;;;;;6.68;5.00;;;;;;;5.08;100.00;101053.19;5069171;28;20034;-57
2021/12/12 06:30:42;;;;;;;8.15;5.10;;;;;;;5.08;100.00;101045.38;5069375;28;20035;-57
2021/12/12 06:33:09;;;;;;;9.02;5.32;;;;;;;5.11;100.00;101050.53;5068761;28;20081;-56
2021/12/12 06:35:35;;;;;;;9.93;5.80;;;;;;;5.09;100.00;101047.13;5067054;28;20039;-57
2021/12/12 06:38:06;;;;;;;12.55;5.25;;;;;;;5.12;100.00;101056.63;5069263;28;20032;-56
2021/12/12 06:40:31;;;;;;;8.68;6.05;;;;;;;5.11;100.00;101050.53;5051017;28;20574;-57
2021/12/12 06:42:59;;;;;;;11.98;5.22;;;;;;;5.12;100.00;101057.47;5069706;28;20027;-57
2021/12/12 06:45:26;;;;;;;12.30;5.95;;;;;;;5.04;100.00;101043.72;5073043;28;20853;-57
2021/12/12 06:47:52;;;;;;;11.80;5.20;;;;;;;5.15;100.00;101062.63;5050231;28;20039;-57
2021/12/12 06:50:18;;;;;;;8.73;5.82;;;;;;;5.16;100.00;101066.09;5051696;28;20914;-57
2021/12/12 06:52:45;;;;;;;7.50;4.95;;;;;;;5.17;100.00;101059.16;5068277;28;20841;-56
2021/12/12 06:55:12;;;;;;;8.30;5.25;;;;;;;5.19;100.00;101062.56;5059056;28;20060;-56
2021/12/12 06:57:38;;;;;;;7.72;5.18;;;;;;;5.21;100.00;101066.00;5048607;28;20082;-56
2021/12/12 07:00:08;;;;;;;7.72;5.07;;;;;;;5.20;100.00;101065.16;5031089;28;20024;-56
2021/12/12 07:02:34;;;;;;;6.97;4.68;;;;;;;5.22;100.00;101062.50;5049442;28;20055;-56
2021/12/12 07:04:59;;;;;;;7.60;4.90;;;;;;;5.23;100.00;101061.63;5057564;28;20951;-56
2021/12/12 07:07:25;;;;;;;6.38;4.38;;;;;;;5.23;100.00;101067.72;5068130;28;20030;-56
2021/12/12 07:09:51;;;;;;;6.30;4.18;;;;;;;5.24;100.00;101071.19;5069290;28;20024;-56
2021/12/12 07:12:22;;;;;;;6.63;4.55;;;;;;;5.25;100.00;101078.09;5067167;28;20108;-56
2021/12/12 07:14:47;;;;;;;6.80;4.28;;;;;;;5.27;100.00;101079.81;5067084;28;20035;-56
2021/12/12 07:17:15;;;;;;;9.45;4.28;;;;;;;5.29;100.00;101077.16;5066934;28;20138;-56
2021/12/12 07:19:40;;;;;;;9.32;4.75;;;;;;;5.12;100.00;101051.41;5067920;28;20139;-56
2021/12/12 07:22:06;;;;;;;8.27;4.78;;;;;;;5.29;100.00;101079.75;5065056;28;20031;-56
2021/12/12 07:24:32;;;;;;;5.72;3.90;;;;;;;5.32;100.00;101083.16;5068203;28;20028;-56
2021/12/12 07:27:01;;;;;;;8.50;3.75;;;;;;;5.32;100.00;101085.78;5065581;28;20834;-56
2021/12/12 07:29:27;;;;;;;6.47;4.10;;;;;;;5.33;100.00;101081.44;5068182;28;20024;-56
2021/12/12 07:31:53;;;;;;;8.95;4.60;;;;;;;5.34;100.00;101081.38;5067660;28;20023;-56
2021/12/12 07:34:18;;;;;;;7.57;4.30;;;;;;;5.18;100.00;101050.44;5066518;28;20357;-57
2021/12/12 07:36:50;;;;;;;5.70;3.55;;;;;;;5.37;100.00;101083.09;5050022;28;20028;-56
2021/12/12 07:39:18;;;;;;;5.75;4.00;;;;;;;5.36;100.00;101078.75;5067502;28;20030;-57
2021/12/12 07:41:45;;;;;;;7.30;4.20;;;;;;;5.38;100.00;101084.78;5068721;28;20880;-56
2021/12/12 07:44:12;;;;;;;5.25;3.70;;;;;;;5.33;100.00;101071.88;5067958;28;20042;-57
2021/12/12 07:46:38;;;;;;;8.98;4.50;;;;;;;5.43;100.00;101098.63;5067124;28;20026;-57
2021/12/12 07:49:05;;;;;;;7.32;4.13;;;;;;;5.43;100.00;101088.19;5067632;28;20024;-57
2021/12/12 07:51:32;;;;;;;10.15;5.35;;;;;;;5.46;100.00;101098.56;5067100;28;20023;-57
2021/12/12 07:54:00;;;;;;;5.90;4.25;;;;;;;5.47;100.00;101087.25;5067481;28;20027;-57
2021/12/12 07:56:29;;;;;;;7.60;4.72;;;;;;;5.50;100.00;101095.00;5067542;28;20027;-57
2021/12/12 07:58:56;;;;;;;7.40;4.53;;;;;;;5.49;100.00;101104.56;5067747;28;20955;-57
2021/12/12 08:01:22;;;;;;;7.05;4.43;;;;;;;5.51;100.00;101100.19;5063458;28;20052;-57
2021/12/12 08:03:50;;;;;;;9.88;4.43;;;;;;;5.52;100.00;101098.44;5045625;28;20035;-57
2021/12/12 08:06:15;;;;;;;6.20;3.70;;;;;;;5.53;100.00;101098.44;5046677;28;20035;-57
2021/12/12 08:08:42;;;;;;;4.90;3.45;;;;;;;5.55;100.00;101099.25;5047391;28;20055;-57
2021/12/12 08:11:07;;;;;;;6.88;4.45;;;;;;;5.57;100.00;101101.84;5046508;28;20024;-57
2021/12/12 08:13:33;;;;;;;6.03;4.10;;;;;;;5.58;100.00;101108.75;5045583;28;20132;-57
2021/12/12 08:16:00;;;;;;;7.47;4.28;;;;;;;5.33;100.00;101065.78;5030485;28;20032;-57
2021/12/12 08:18:27;;;;;;;6.22;3.78;;;;;;;5.62;100.00;101110.41;5030083;28;20039;-57
2021/12/12 08:20:53;;;;;;;5.50;3.85;;;;;;;5.64;100.00;101119.91;5047975;28;20032;-58
2021/12/12 08:23:19;;;;;;;6.95;4.15;;;;;;;5.68;100.00;101109.47;5030528;28;20032;-57
2021/12/12 08:25:46;;;;;;;4.53;3.75;;;;;;;5.70;100.00;101111.16;5047592;28;20136;-58
2021/12/12 08:28:13;;;;;;;5.85;4.38;;;;;;;5.61;100.00;101104.34;5030598;28;20079;-57
2021/12/12 08:30:38;;;;;;;8.07;4.70;;;;;;;5.74;100.00;101110.22;5048168;28;20078;-58
2021/12/12 08:33:06;;;;;;;11.25;4.47;;;;;;;5.78;100.00;101117.06;5048517;28;20978;-58
2021/12/12 08:35:32;;;;;;;7.38;4.60;;;;;;;5.78;100.00;101111.84;5050006;28;20096;-57
2021/12/12 08:38:00;;;;;;;6.13;4.13;;;;;;;5.80;100.00;101114.44;5049597;28;20083;-57
2021/12/12 08:40:28;;;;;;;6.68;4.15;;;;;;;5.82;100.00;101123.94;5049356;28;20035;-58
2021/12/12 08:42:55;;;;;;;10.13;4.00;;;;;;;5.84;100.00;101124.78;5048442;28;20028;-57
2021/12/12 08:45:23;;;;;;;9.38;4.57;;;;;;;5.82;100.00;101117.84;5047842;28;20028;-57
2021/12/12 08:47:50;;;;;;;6.80;3.97;;;;;;;5.87;100.00;101122.16;5048234;28;20035;-57
2021/12/12 08:50:19;;;;;;;7.43;3.92;;;;;;;5.55;100.00;101078.41;5028593;28;20024;-57
2021/12/12 08:52:47;;;;;;;8.13;4.28;;;;;;;5.94;100.00;101134.19;5047229;28;20038;-57
2021/12/12 08:55:19;;;;;;;6.85;3.97;;;;;;;5.98;100.00;101122.78;5046239;28;20914;-57
2021/12/12 08:58:02;;;;;;;7.25;3.83;;;;;;;5.79;100.00;101092.72;5046649;28;20037;-57
2021/12/12 09:00:32;;;;;;;6.18;4.00;;;;;;;6.08;100.00;101128.69;5046488;28;20028;-57
2021/12/12 09:02:58;;;;;;;4.97;3.58;;;;;;;6.08;100.00;101132.13;5048045;28;20186;-57
2021/12/12 09:05:28;;;;;;;6.90;4.38;;;;;;;6.10;100.00;101132.13;5047890;28;20168;-57
2021/12/12 09:08:00;;;;;;;16.88;4.13;;;;;;;6.10;100.00;101139.94;5051775;28;20885;-58
2021/12/12 09:10:38;;;;;;;5.75;3.60;;;;;;;6.13;100.00;101145.97;5026801;28;20024;-57
2021/12/12 09:13:15;;;;;;;11.75;4.25;;;;;;;6.14;100.00;101142.47;5044056;28;20031;-58
2021/12/12 09:16:04;;;;;;;7.43;4.03;;;;;;;6.16;100.00;101140.69;5045814;28;20038;-57
2021/12/12 09:18:38;;;;;;;9.15;4.32;;;;;;;6.18;100.00;101154.53;5026359;28;20074;-57
2021/12/12 09:21:15;;;;;;;5.43;3.65;;;;;;;6.20;100.00;101151.91;5047069;28;20198;-57
2021/12/12 09:23:49;;;;;;;6.15;3.55;;;;;;;6.20;100.00;101156.28;5040467;28;20028;-57
2021/12/12 09:26:21;;;;;;;7.90;4.07;;;;;;;6.20;100.00;101153.66;5047855;28;20814;-57
2021/12/12 09:28:56;;;;;;;7.88;4.28;;;;;;;6.18;100.00;101160.69;5066079;28;20372;-57
2021/12/12 09:31:28;;;;;;;10.15;4.30;;;;;;;6.18;100.00;101154.53;5066539;28;20094;-57
2021/12/12 09:34:11;;;;;;;6.57;3.72;;;;;;;6.18;100.00;101164.16;5065925;28;20019;-57
2021/12/12 09:36:41;;;;;;;8.50;4.82;;;;;;;6.16;100.00;101161.56;5064810;28;20267;-57
2021/12/12 09:39:18;;;;;;;6.28;3.75;;;;;;;6.14;100.00;101152.91;5048912;28;20777;-57
2021/12/12 09:41:56;;;;;;;5.82;3.95;;;;;;;6.17;100.00;101178.06;5048262;28;20051;-57
2021/12/12 09:44:31;;;;;;;7.30;4.38;;;;;;;6.18;100.00;101177.19;5065842;28;20067;-57
2021/12/12 09:53:18;;;;;;;8.90;4.68;;;;;;;6.27;100.00;101176.13;5050043;28;20050;-57
2021/12/12 09:56:00;;;;;;;6.35;3.92;;;;;;;6.27;100.00;101163.94;5046826;28;20027;-57
2021/12/12 09:58:44;;;;;;;11.93;4.15;;;;;;;6.34;100.00;101175.13;5065419;28;20124;-57
2021/12/12 10:01:20;;;;;;;7.85;4.15;;;;;;;6.37;100.00;101180.28;5048034;28;20039;-58
2021/12/12 10:04:08;;;;;;;6.18;4.03;;;;;;;6.39;100.00;101178.47;5047931;28;20097;-58
2021/12/12 10:06:41;;;;;;;5.80;3.80;;;;;;;6.39;100.00;101183.72;5064555;28;20043;-57
2021/12/12 10:09:08;;;;;;;6.75;4.25;;;;;;;6.43;100.00;101185.38;5067345;28;20024;-57
2021/12/12 10:11:42;;;;;;;7.35;4.35;;;;;;;6.44;100.00;101187.97;5067354;28;20031;-58
2021/12/12 10:14:17;;;;;;;5.22;3.42;;;;;;;6.46;100.00;101183.56;5068643;28;20028;-57
2021/12/12 10:17:04;;;;;;;11.90;4.88;;;;;;;6.51;100.00;101173.91;5070416;28;20039;-57
2021/12/12 10:19:55;;;;;;;9.27;4.78;;;;;;;6.51;100.00;101178.25;5070097;28;20027;-57
2021/12/12 10:22:38;;;;;;;13.95;4.78;;;;;;;6.50;100.00;101174.78;5069505;28;20032;-57
2021/12/12 10:25:04;;;;;;;7.78;4.25;;;;;;;6.52;100.00;101170.38;5069123;28;20031;-57
2021/12/12 10:28:13;;;;;;;6.30;4.15;;;;;;;6.55;100.00;101177.31;5068798;28;20111;-57
2021/12/12 10:30:44;;;;;;;9.38;4.60;;;;;;;6.59;100.00;101178.97;5059591;28;20042;-57
2021/12/12 10:33:17;;;;;;;8.38;4.28;;;;;;;6.63;100.00;101173.63;5051532;28;20031;-57
2021/12/12 10:35:55;;;;;;;7.82;4.38;;;;;;;6.63;100.00;101177.97;5052051;28;20078;-57
2021/12/12 10:38:27;;;;;;;9.38;4.85;;;;;;;6.60;100.00;101178.03;5069588;28;20036;-57
2021/12/12 10:41:03;;;;;;;10.35;5.05;;;;;;;6.29;100.00;101120.41;5068745;28;20116;-57
2021/12/12 10:43:38;;;;;;;8.88;4.40;;;;;;;6.53;100.00;101166.00;5068086;28;20028;-57
2021/12/12 10:46:19;;;;;;;6.68;3.92;;;;;;;6.54;100.00;101172.97;5049917;28;20028;-57
2021/12/12 10:49:04;;;;;;;6.93;4.45;;;;;;;6.55;100.00;101175.56;5051223;28;20126;-57
2021/12/12 10:51:38;;;;;;;9.80;4.03;;;;;;;6.47;100.00;101158.31;5051188;28;20057;-57
2021/12/12 10:54:15;;;;;;;7.90;4.30;;;;;;;6.47;100.00;101155.72;5051024;28;20894;-57
2021/12/12 10:57:01;;;;;;;9.00;4.78;;;;;;;6.53;100.00;101171.22;5068569;28;20042;-57
2021/12/12 10:59:37;;;;;;;7.72;3.92;;;;;;;6.54;100.00;101180.78;5070001;28;20032;-57
2021/12/12 11:02:07;;;;;;;5.45;3.92;;;;;;;6.53;100.00;101176.44;5050605;28;20068;-57
2021/12/12 11:05:02;;;;;;;7.00;3.88;;;;;;;6.55;100.00;101179.91;5067840;28;20029;-58
2021/12/12 11:07:36;;;;;;;6.82;4.53;;;;;;;6.55;100.00;101174.69;5067140;28;20970;-57
2021/12/12 11:10:12;;;;;;;8.10;4.30;;;;;;;6.55;100.00;101174.69;5051251;28;20028;-57
2021/12/12 11:13:01;;;;;;;6.65;4.53;;;;;;;6.57;100.00;101168.53;5069283;28;20927;-57
2021/12/12 11:15:33;;;;;;;11.98;4.93;;;;;;;6.60;100.00;101172.81;5056446;28;20040;-56
2021/12/12 11:18:09;;;;;;;7.82;5.13;;;;;;;6.64;100.00;101180.56;5051612;28;20123;-56
2021/12/12 11:20:39;;;;;;;10.32;4.45;;;;;;;6.68;100.00;101178.75;5066859;28;20036;-56
2021/12/12 11:23:09;;;;;;;6.43;4.40;;;;;;;6.66;100.00;101184.00;5050028;28;20037;-56
2021/12/12 11:25:44;;;;;;;9.93;5.13;;;;;;;6.66;100.00;101172.69;5068768;28;20143;-56
2021/12/12 11:28:36;;;;;;;10.70;5.00;;;;;;;6.69;100.00;101185.69;5048800;28;20126;-57
2021/12/12 11:31:06;;;;;;;11.30;5.15;;;;;;;6.57;100.00;101146.78;5049950;28;20939;-57
2021/12/12 11:33:33;;;;;;;19.08;5.30;;;;;;;6.77;100.00;101173.31;5049896;28;20027;-57
2021/12/12 11:35:59;;;;;;;7.38;4.97;;;;;;;6.56;100.00;101139.84;5048982;28;20055;-57
2021/12/12 11:38:41;;;;;;;6.60;4.63;;;;;;;6.82;100.00;101176.69;5067792;28;20070;-57
2021/12/12 11:41:34;;;;;;;9.63;5.05;;;;;;;6.85;100.00;101179.25;5067337;28;20263;-57
2021/12/12 11:44:26;;;;;;;9.27;6.00;;;;;;;6.87;100.00;101179.19;5061292;28;20036;-57
2021/12/12 11:47:06;;;;;;;8.38;5.13;;;;;;;6.89;100.00;101175.69;5066232;28;20050;-57
2021/12/12 11:49:48;;;;;;;7.78;4.95;;;;;;;6.94;100.00;101179.03;5067077;28;20549;-57
2021/12/12 11:52:24;;;;;;;8.23;5.18;;;;;;;6.96;100.00;101172.00;5049505;28;20027;-57
2021/12/12 11:54:59;;;;;;;11.55;5.93;;;;;;;6.96;100.00;101179.84;5067598;28;20031;-58
2021/12/12 11:57:32;;;;;;;8.85;5.20;;;;;;;6.96;100.00;101185.06;5050001;28;20131;-58